Time;durP1;ratioP1;P1;durP2;ratioP2;P2;SDS_P1;SDS_P2;PMS_P1;PMS_P2;Temp;Humidity;BMP_temperature;BMP_pressure;BME280_temperature;BME280_humidity;BME280_pressure;Samples;Min_cycle;Max_cycle;Signal;HPM_P1;HPM_P2
2021/12/06 00:01:10;;;;;;;9.88;4.68;;;;;;;;;;4960942;28;20022;-64
2021/12/06 00:03:47;;;;;;;10.23;4.55;;;;;;;;;;4959414;28;20050;-70
2021/12/06 00:06:14;;;;;;;5.95;3.92;;;;;;;;;;4957458;28;20035;-63
2021/12/06 00:08:40;;;;;;;7.30;4.15;;;;;;;;;;4963497;28;22972;-64
2021/12/06 00:11:09;;;;;;;7.47;4.22;;;;;;;;;;4964929;28;20114;-65
2021/12/06 00:13:41;;;;;;;7.25;4.60;;;;;;;;;;4962710;28;20026;-66
2021/12/06 00:16:13;;;;;;;7.82;4.07;;;;;;;;;;4964608;28;20538;-65
2021/12/06 00:18:39;;;;;;;7.60;4.00;;;;;;;;;;4969268;28;20057;-65
2021/12/06 00:21:05;;;;;;;10.57;4.20;;;;;;;;;;4967473;28;20031;-65
2021/12/06 00:23:31;;;;;;;8.93;4.40;;;;;;;;;;4970722;28;20030;-65
2021/12/06 00:25:57;;;;;;;12.30;4.00;;;;;;;;;;4966313;28;20039;-66
2021/12/06 00:28:24;;;;;;;6.40;4.00;;;;;;;;;;4966717;28;20070;-65
2021/12/06 00:30:51;;;;;;;8.15;4.65;;;;;;;;;;4969863;28;20053;-66
2021/12/06 00:33:16;;;;;;;7.32;4.30;;;;;;;;;;4968413;28;20034;-65
2021/12/06 00:35:42;;;;;;;9.45;4.35;;;;;;;;;;4969849;28;20117;-66
2021/12/06 00:38:08;;;;;;;9.35;4.45;;;;;;;;;;4970286;28;20093;-65
2021/12/06 00:40:38;;;;;;;7.85;4.20;;;;;;;;;;4963919;28;20121;-65
2021/12/06 00:43:04;;;;;;;9.40;4.80;;;;;;;;;;4965431;28;20482;-65
2021/12/06 00:45:30;;;;;;;11.27;5.15;;;;;;;;;;4967855;28;20387;-65
2021/12/06 00:47:57;;;;;;;11.18;5.00;;;;;;;;;;4970590;28;20026;-65
2021/12/06 00:50:25;;;;;;;9.48;5.10;;;;;;;;;;4966485;28;20398;-64
2021/12/06 00:52:50;;;;;;;11.27;5.07;;;;;;;;;;4961287;28;20030;-65
2021/12/06 00:55:17;;;;;;;11.15;4.93;;;;;;;;;;4963443;28;20388;-64
2021/12/06 00:57:43;;;;;;;7.75;4.80;;;;;;;;;;4962358;28;20026;-65
2021/12/06 01:00:15;;;;;;;8.20;5.07;;;;;;;;;;4962757;28;20027;-65
2021/12/06 01:02:41;;;;;;;9.85;4.95;;;;;;;;;;4967041;28;20027;-65
2021/12/06 01:05:07;;;;;;;8.68;4.90;;;;;;;;;;4962900;28;20030;-67
2021/12/06 01:07:33;;;;;;;7.22;4.45;;;;;;;;;;4962142;28;20480;-64
2021/12/06 01:09:58;;;;;;;9.85;4.82;;;;;;;;;;4967189;28;20066;-65
2021/12/06 01:12:23;;;;;;;10.55;5.00;;;;;;;;;;4969433;28;20411;-65
2021/12/06 01:14:49;;;;;;;9.18;4.90;;;;;;;;;;4967477;28;20038;-65
2021/12/06 01:17:14;;;;;;;8.43;5.15;;;;;;;;;;4962788;28;20041;-65
2021/12/06 01:19:40;;;;;;;8.43;5.00;;;;;;;;;;4963240;28;20126;-66
2021/12/06 01:22:25;;;;;;;8.13;5.13;;;;;;;;;;4964292;28;20142;-65
2021/12/06 01:25:05;;;;;;;9.23;4.90;;;;;;;;;;4968002;28;20079;-65
2021/12/06 01:30:26;;;;;;;7.88;5.00;;;;;;;;;;4966710;28;20065;-64
2021/12/06 01:33:26;;;;;;;10.23;5.55;;;;;;;;;;4963882;28;20027;-69
2021/12/06 01:41:16;;;;;;;7.90;4.80;;;;;;;;;;4964355;28;20068;-66
2021/12/06 01:44:06;;;;;;;10.38;5.07;;;;;;;;;;4964019;28;20031;-66
2021/12/06 01:46:33;;;;;;;9.70;5.43;;;;;;;;;;4965297;28;20229;-65
2021/12/06 01:48:59;;;;;;;9.55;5.40;;;;;;;;;;4964592;28;20679;-65
2021/12/06 01:51:25;;;;;;;9.00;5.22;;;;;;;;;;4969023;28;20038;-65
2021/12/06 01:53:51;;;;;;;8.02;5.28;;;;;;;;;;4964222;28;20431;-65
2021/12/06 01:56:17;;;;;;;10.85;5.47;;;;;;;;;;4966333;28;20110;-66
2021/12/06 01:58:43;;;;;;;9.13;5.40;;;;;;;;;;4966015;28;20027;-65
2021/12/06 02:01:09;;;;;;;11.30;5.43;;;;;;;;;;4961763;28;20383;-64
2021/12/06 02:03:35;;;;;;;8.77;5.45;;;;;;;;;;4963457;28;20023;-65
2021/12/06 02:06:00;;;;;;;10.07;5.35;;;;;;;;;;4958266;28;20038;-65
2021/12/06 02:08:26;;;;;;;12.00;6.18;;;;;;;;;;4958019;28;20137;-65
2021/12/06 02:10:59;;;;;;;14.07;5.80;;;;;;;;;;4962212;28;20030;-67
2021/12/06 02:13:24;;;;;;;10.98;5.00;;;;;;;;;;4961319;28;20039;-65
2021/12/06 02:15:53;;;;;;;11.18;5.82;;;;;;;;;;4964779;28;20499;-64
2021/12/06 02:21:18;;;;;;;8.18;4.88;;;;;;;;;;4970046;28;20038;-64
2021/12/06 02:23:45;;;;;;;8.38;5.30;;;;;;;;;;4966595;28;20035;-65
2021/12/06 02:26:12;;;;;;;8.73;5.35;;;;;;;;;;4964610;28;20039;-65
2021/12/06 02:28:37;;;;;;;10.68;5.60;;;;;;;;;;4964220;28;20041;-65
2021/12/06 02:31:02;;;;;;;8.70;4.82;;;;;;;;;;4968795;28;20031;-65
2021/12/06 02:33:28;;;;;;;8.85;5.50;;;;;;;;;;4970007;28;20042;-66
2021/12/06 02:35:54;;;;;;;8.50;4.78;;;;;;;;;;4971767;28;20029;-65
2021/12/06 02:38:20;;;;;;;9.88;5.20;;;;;;;;;;4970872;28;20023;-65
2021/12/06 02:40:46;;;;;;;8.98;5.32;;;;;;;;;;4965332;28;20523;-65
2021/12/06 02:43:13;;;;;;;7.30;5.38;;;;;;;;;;4964219;28;20121;-65
2021/12/06 02:45:40;;;;;;;11.50;5.80;;;;;;;;;;4964774;28;20030;-65
2021/12/06 02:48:09;;;;;;;9.02;5.18;;;;;;;;;;4962111;28;20061;-65
2021/12/06 02:50:40;;;;;;;7.63;5.10;;;;;;;;;;4967804;28;20030;-65
2021/12/06 02:53:06;;;;;;;7.70;5.10;;;;;;;;;;4966957;28;20030;-65
2021/12/06 02:55:36;;;;;;;14.25;5.70;;;;;;;;;;4970622;28;20043;-65
2021/12/06 02:58:32;;;;;;;9.02;5.15;;;;;;;;;;4965282;28;20022;-65
2021/12/06 03:01:01;;;;;;;8.15;5.22;;;;;;;;;;4961887;28;20038;-65
2021/12/06 03:03:26;;;;;;;8.27;5.38;;;;;;;;;;4959896;28;20499;-65
2021/12/06 03:05:52;;;;;;;9.55;5.50;;;;;;;;;;4962175;28;20034;-65
2021/12/06 03:09:01;;;;;;;9.40;5.50;;;;;;;;;;4963930;28;20039;-65
2021/12/06 03:11:32;;;;;;;10.18;5.80;;;;;;;;;;4976988;28;20095;-67
2021/12/06 03:13:58;;;;;;;8.43;5.32;;;;;;;;;;4986461;28;20039;-65
2021/12/06 03:16:24;;;;;;;8.55;4.97;;;;;;;;;;4969147;28;20053;-66
2021/12/06 03:18:51;;;;;;;8.68;4.72;;;;;;;;;;4961820;28;20462;-65
2021/12/06 03:21:17;;;;;;;10.70;5.50;;;;;;;;;;4961351;28;20031;-65
2021/12/06 03:23:43;;;;;;;11.23;6.00;;;;;;;;;;4965459;28;20057;-65
2021/12/06 03:26:09;;;;;;;8.57;5.35;;;;;;;;;;4964961;28;20042;-65
2021/12/06 03:28:40;;;;;;;9.55;6.00;;;;;;;;;;4964687;28;20036;-64
2021/12/06 03:31:06;;;;;;;10.13;5.53;;;;;;;;;;4963102;28;20031;-65
2021/12/06 03:33:35;;;;;;;12.32;5.60;;;;;;;;;;4962847;28;20042;-64
2021/12/06 03:36:03;;;;;;;7.85;5.35;;;;;;;;;;4963355;28;20306;-65
2021/12/06 03:38:28;;;;;;;9.77;5.40;;;;;;;;;;4959790;28;20101;-64
2021/12/06 03:40:54;;;;;;;9.10;4.97;;;;;;;;;;4965996;28;20425;-65
2021/12/06 03:43:19;;;;;;;11.55;5.70;;;;;;;;;;4967097;28;20448;-64
2021/12/06 03:45:45;;;;;;;9.32;5.35;;;;;;;;;;4959807;28;20039;-65
2021/12/06 03:48:10;;;;;;;8.70;5.28;;;;;;;;;;4962221;28;20027;-64
2021/12/06 03:50:36;;;;;;;7.22;5.03;;;;;;;;;;4961417;28;20367;-65
2021/12/06 03:53:01;;;;;;;9.82;4.78;;;;;;;;;;4966809;28;20464;-65
2021/12/06 03:55:27;;;;;;;7.13;4.22;;;;;;;;;;4970215;28;20030;-66
2021/12/06 03:57:52;;;;;;;9.85;4.93;;;;;;;;;;4963879;28;20027;-65
2021/12/06 04:00:18;;;;;;;9.15;5.10;;;;;;;;;;4964390;28;20031;-64
2021/12/06 04:02:44;;;;;;;8.30;4.78;;;;;;;;;;4968660;28;20029;-65
2021/12/06 04:05:09;;;;;;;8.18;5.18;;;;;;;;;;4967180;28;20068;-65
2021/12/06 04:07:35;;;;;;;7.95;4.32;;;;;;;;;;4967612;28;20034;-64
2021/12/06 04:10:02;;;;;;;7.47;4.70;;;;;;;;;;4967688;28;21216;-65
2021/12/06 04:12:28;;;;;;;6.32;4.90;;;;;;;;;;4968711;28;20031;-65
2021/12/06 04:14:53;;;;;;;8.57;5.10;;;;;;;;;;4969504;28;20064;-65
2021/12/06 04:17:19;;;;;;;6.95;4.70;;;;;;;;;;4968291;28;20035;-66
2021/12/06 04:19:44;;;;;;;7.57;4.53;;;;;;;;;;4967014;28;20041;-65
2021/12/06 04:22:12;;;;;;;10.10;5.20;;;;;;;;;;4968490;28;20030;-65
2021/12/06 04:24:39;;;;;;;8.93;4.95;;;;;;;;;;4969002;28;20034;-66
2021/12/06 04:27:13;;;;;;;10.00;4.45;;;;;;;;;;4967275;28;20038;-66
2021/12/06 04:29:46;;;;;;;6.57;4.68;;;;;;;;;;4970334;28;20454;-66
2021/12/06 04:32:13;;;;;;;8.65;5.43;;;;;;;;;;4967578;28;20124;-65
2021/12/06 04:34:39;;;;;;;8.77;5.20;;;;;;;;;;4981261;28;20042;-66
2021/12/06 04:37:05;;;;;;;9.77;5.30;;;;;;;;;;4967996;28;20107;-66
2021/12/06 04:39:31;;;;;;;9.00;5.65;;;;;;;;;;4968602;28;20034;-66
2021/12/06 04:41:56;;;;;;;8.82;5.15;;;;;;;;;;4966463;28;20126;-66
2021/12/06 04:44:22;;;;;;;11.52;5.13;;;;;;;;;;4967179;28;20484;-66
2021/12/06 04:46:48;;;;;;;8.02;5.18;;;;;;;;;;4967131;28;20152;-66
2021/12/06 04:49:14;;;;;;;20.65;10.50;;;;;;;;;;4965826;28;20038;-66
2021/12/06 04:51:50;;;;;;;11.20;6.20;;;;;;;;;;4963584;28;20034;-66
2021/12/06 04:54:20;;;;;;;10.65;5.05;;;;;;;;;;4964935;28;20035;-64
2021/12/06 04:56:51;;;;;;;6.40;4.57;;;;;;;;;;4968498;28;20522;-65
2021/12/06 04:59:26;;;;;;;11.43;5.10;;;;;;;;;;4969796;28;20026;-63
2021/12/06 05:01:54;;;;;;;7.30;5.05;;;;;;;;;;4967685;28;20063;-66
2021/12/06 05:04:28;;;;;;;8.57;4.50;;;;;;;;;;4967042;28;20034;-64
2021/12/06 05:07:01;;;;;;;9.55;4.68;;;;;;;;;;4967190;28;20029;-66
2021/12/06 05:09:33;;;;;;;8.27;4.85;;;;;;;;;;4966824;28;20459;-66
2021/12/06 05:11:59;;;;;;;8.88;5.15;;;;;;;;;;4962571;28;20360;-66
2021/12/06 05:14:25;;;;;;;8.93;4.32;;;;;;;;;;4965073;28;20067;-66
2021/12/06 05:16:52;;;;;;;8.27;5.03;;;;;;;;;;4965588;28;20030;-66
2021/12/06 05:19:18;;;;;;;10.43;5.18;;;;;;;;;;4963168;28;20066;-66
2021/12/06 05:21:44;;;;;;;8.90;5.30;;;;;;;;;;4961644;28;20157;-66
2021/12/06 05:24:09;;;;;;;9.77;5.95;;;;;;;;;;4968872;28;20446;-66
2021/12/06 05:26:36;;;;;;;11.38;5.47;;;;;;;;;;4966661;28;20115;-65
2021/12/06 05:29:04;;;;;;;8.32;5.03;;;;;;;;;;4965922;28;20034;-66
2021/12/06 05:31:30;;;;;;;8.70;4.95;;;;;;;;;;4961776;28;20054;-66
2021/12/06 05:34:02;;;;;;;9.85;5.55;;;;;;;;;;4966298;28;20034;-66
2021/12/06 05:36:27;;;;;;;11.13;5.68;;;;;;;;;;4967520;28;20026;-64
2021/12/06 05:38:54;;;;;;;12.43;6.00;;;;;;;;;;4962842;28;20059;-64
2021/12/06 05:41:20;;;;;;;13.60;5.97;;;;;;;;;;4964745;28;20035;-66
2021/12/06 05:43:46;;;;;;;8.25;4.85;;;;;;;;;;4964198;28;20138;-66
2021/12/06 05:46:11;;;;;;;9.15;5.38;;;;;;;;;;4963321;28;20405;-66
2021/12/06 05:48:37;;;;;;;7.88;5.00;;;;;;;;;;4967262;28;20526;-65
2021/12/06 05:51:02;;;;;;;7.78;5.43;;;;;;;;;;4964372;28;21863;-66
2021/12/06 05:53:28;;;;;;;9.55;5.43;;;;;;;;;;4961069;28;20105;-65
2021/12/06 05:55:54;;;;;;;9.32;5.32;;;;;;;;;;4964436;28;20356;-66
2021/12/06 05:58:22;;;;;;;8.43;4.97;;;;;;;;;;4965594;28;20097;-66
2021/12/06 06:00:49;;;;;;;7.63;4.60;;;;;;;;;;4964924;28;20081;-65
2021/12/06 06:03:15;;;;;;;8.98;5.35;;;;;;;;;;4962434;28;20023;-63
2021/12/06 06:05:41;;;;;;;8.93;5.45;;;;;;;;;;4961040;28;20054;-64
2021/12/06 06:08:07;;;;;;;6.90;5.25;;;;;;;;;;4962553;28;20459;-64
2021/12/06 06:10:33;;;;;;;10.65;5.78;;;;;;;;;;4961306;28;20031;-62
2021/12/06 06:12:59;;;;;;;8.73;5.35;;;;;;;;;;4962774;28;20049;-65
2021/12/06 06:15:26;;;;;;;7.80;5.20;;;;;;;;;;4960821;28;20042;-65
2021/12/06 06:17:51;;;;;;;8.38;5.78;;;;;;;;;;4961150;28;20031;-65
2021/12/06 06:20:19;;;;;;;10.32;5.30;;;;;;;;;;4964113;28;20109;-65
2021/12/06 06:22:45;;;;;;;9.70;5.40;;;;;;;;;;4961711;28;20540;-64
2021/12/06 06:25:11;;;;;;;7.80;5.32;;;;;;;;;;4962194;28;20030;-64
2021/12/06 06:27:36;;;;;;;11.38;6.25;;;;;;;;;;4962052;28;20061;-63
2021/12/06 06:30:04;;;;;;;10.68;5.53;;;;;;;;;;4961141;28;20086;-63
2021/12/06 06:32:29;;;;;;;10.88;6.07;;;;;;;;;;4954522;28;20046;-63
2021/12/06 06:34:54;;;;;;;11.52;5.72;;;;;;;;;;4963454;28;20031;-63
2021/12/06 06:37:20;;;;;;;8.57;5.28;;;;;;;;;;4961171;28;20440;-62
2021/12/06 06:39:46;;;;;;;8.63;5.40;;;;;;;;;;4962830;28;20114;-63
2021/12/06 06:42:11;;;;;;;9.02;5.45;;;;;;;;;;4975675;28;20332;-63
2021/12/06 06:44:36;;;;;;;10.35;6.07;;;;;;;;;;4961530;28;20035;-63
2021/12/06 06:47:02;;;;;;;9.23;5.63;;;;;;;;;;4961979;28;20049;-63
2021/12/06 06:49:30;;;;;;;6.28;5.20;;;;;;;;;;4963090;28;20166;-62
2021/12/06 06:52:00;;;;;;;8.73;5.28;;;;;;;;;;4962216;28;20088;-62
2021/12/06 06:54:25;;;;;;;9.77;5.25;;;;;;;;;;4962534;28;20141;-62
2021/12/06 06:56:51;;;;;;;10.27;5.60;;;;;;;;;;4963583;28;20109;-63
2021/12/06 06:59:16;;;;;;;11.35;5.68;;;;;;;;;;4965723;28;20034;-63
2021/12/06 07:01:45;;;;;;;10.98;5.55;;;;;;;;;;4963330;28;20067;-64
2021/12/06 07:04:11;;;;;;;9.85;5.25;;;;;;;;;;4962778;28;20113;-64
2021/12/06 07:06:37;;;;;;;9.23;6.28;;;;;;;;;;4963294;28;20031;-63
2021/12/06 07:09:03;;;;;;;10.30;5.43;;;;;;;;;;4965230;28;20383;-63
2021/12/06 07:11:29;;;;;;;11.80;6.20;;;;;;;;;;4972389;28;20038;-63
2021/12/06 07:13:55;;;;;;;10.43;6.35;;;;;;;;;;4962888;28;20038;-61
2021/12/06 07:16:21;;;;;;;11.75;6.30;;;;;;;;;;4965360;28;20027;-66
2021/12/06 07:18:46;;;;;;;12.98;6.18;;;;;;;;;;4967305;28;20476;-63
2021/12/06 07:21:12;;;;;;;12.93;6.32;;;;;;;;;;4963912;28;20049;-63
2021/12/06 07:23:38;;;;;;;11.52;6.32;;;;;;;;;;4968963;28;20042;-65
2021/12/06 07:26:09;;;;;;;11.07;6.20;;;;;;;;;;4967099;28;20027;-63
2021/12/06 07:28:35;;;;;;;10.18;5.65;;;;;;;;;;4968454;28;20371;-62
2021/12/06 07:31:02;;;;;;;11.48;6.07;;;;;;;;;;4965645;28;20027;-63
2021/12/06 07:33:28;;;;;;;7.47;5.07;;;;;;;;;;4966100;28;21252;-63
2021/12/06 07:35:54;;;;;;;10.45;5.40;;;;;;;;;;4966331;28;20085;-65
2021/12/06 07:38:19;;;;;;;11.70;5.40;;;;;;;;;;4967959;28;20097;-63
2021/12/06 07:40:49;;;;;;;7.88;5.72;;;;;;;;;;4963429;28;20031;-63
2021/12/06 07:43:15;;;;;;;9.85;5.97;;;;;;;;;;4963215;28;20134;-63
2021/12/06 07:45:41;;;;;;;13.80;5.75;;;;;;;;;;4964218;28;20142;-63
2021/12/06 07:48:06;;;;;;;9.27;5.78;;;;;;;;;;4969607;28;20030;-61
2021/12/06 07:50:32;;;;;;;12.02;5.82;;;;;;;;;;4968293;28;20045;-62
2021/12/06 07:52:57;;;;;;;9.88;5.38;;;;;;;;;;4965990;28;20187;-63
2021/12/06 07:55:26;;;;;;;8.07;5.75;;;;;;;;;;4966193;28;20030;-63
2021/12/06 07:57:56;;;;;;;8.40;5.70;;;;;;;;;;4968216;28;20031;-64
2021/12/06 08:00:23;;;;;;;9.63;5.45;;;;;;;;;;4965879;28;20026;-65
2021/12/06 08:02:49;;;;;;;10.73;6.43;;;;;;;;;;4967809;28;20403;-65
2021/12/06 08:05:30;;;;;;;12.65;6.80;;;;;;;;;;4969053;28;20503;-66
2021/12/06 08:08:09;;;;;;;12.02;7.25;;;;;;;;;;4967353;28;20098;-66
2021/12/06 08:10:43;;;;;;;11.88;6.60;;;;;;;;;;4961413;28;20023;-63
2021/12/06 08:13:09;;;;;;;12.05;7.18;;;;;;;;;;4965009;28;20038;-63
2021/12/06 08:15:35;;;;;;;12.82;6.93;;;;;;;;;;4961078;28;20367;-63
2021/12/06 08:18:00;;;;;;;13.07;7.75;;;;;;;;;;4965363;28;20057;-65
2021/12/06 08:20:26;;;;;;;14.80;7.68;;;;;;;;;;4965594;28;20365;-64
2021/12/06 08:22:51;;;;;;;12.77;7.13;;;;;;;;;;4966569;28;20022;-64
2021/12/06 08:25:18;;;;;;;10.90;6.90;;;;;;;;;;4963118;28;20030;-65
2021/12/06 08:27:43;;;;;;;10.60;7.25;;;;;;;;;;4962950;28;20380;-63
2021/12/06 08:30:12;;;;;;;12.95;7.22;;;;;;;;;;4966535;28;20053;-64
2021/12/06 08:32:37;;;;;;;12.27;7.45;;;;;;;;;;4982791;28;20088;-63
2021/12/06 08:35:04;;;;;;;14.25;7.47;;;;;;;;;;4966590;28;20086;-64
2021/12/06 08:37:30;;;;;;;11.30;6.80;;;;;;;;;;4967520;28;20031;-64
2021/12/06 08:39:56;;;;;;;10.85;7.03;;;;;;;;;;4967567;28;20027;-63
2021/12/06 08:42:22;;;;;;;13.55;7.68;;;;;;;;;;4965080;28;20051;-64
2021/12/06 08:44:48;;;;;;;11.95;6.78;;;;;;;;;;4964294;28;20045;-64
2021/12/06 08:47:15;;;;;;;10.43;6.60;;;;;;;;;;4964053;28;20467;-63
2021/12/06 08:49:41;;;;;;;10.75;7.18;;;;;;;;;;4962940;28;20153;-63
2021/12/06 08:52:07;;;;;;;10.23;6.53;;;;;;;;;;4967673;28;20125;-64
2021/12/06 08:54:32;;;;;;;11.25;6.97;;;;;;;;;;4963754;28;20042;-65
2021/12/06 08:57:00;;;;;;;11.75;7.15;;;;;;;;;;4965706;28;20026;-62
2021/12/06 08:59:26;;;;;;;11.95;7.68;;;;;;;;;;4963243;28;20041;-65
2021/12/06 09:01:54;;;;;;;14.90;8.00;;;;;;;;;;4964718;28;20061;-64
2021/12/06 09:04:21;;;;;;;10.13;6.78;;;;;;;;;;4976658;28;20019;-63
2021/12/06 09:06:50;;;;;;;12.98;7.95;;;;;;;;;;4966924;28;20059;-63
2021/12/06 09:09:16;;;;;;;11.52;7.30;;;;;;;;;;4967713;28;20104;-63
2021/12/06 09:11:43;;;;;;;12.65;7.47;;;;;;;;;;4964309;28;20023;-64
2021/12/06 09:14:10;;;;;;;14.98;8.18;;;;;;;;;;4964300;28;20513;-66
2021/12/06 09:16:37;;;;;;;14.52;7.70;;;;;;;;;;4964141;28;20027;-65
2021/12/06 09:19:06;;;;;;;17.50;7.97;;;;;;;;;;4962856;28;20062;-64
2021/12/06 09:21:33;;;;;;;13.75;7.65;;;;;;;;;;4963740;28;20022;-63
2021/12/06 09:24:00;;;;;;;14.60;8.13;;;;;;;;;;4966233;28;20042;-64
2021/12/06 09:26:28;;;;;;;13.93;8.25;;;;;;;;;;4965504;28;20126;-64
2021/12/06 09:28:55;;;;;;;12.88;7.95;;;;;;;;;;4966002;28;20034;-66
2021/12/06 09:31:20;;;;;;;15.68;7.80;;;;;;;;;;4963887;28;20027;-64
2021/12/06 09:33:46;;;;;;;13.48;8.25;;;;;;;;;;4965210;28;20039;-64
2021/12/06 09:36:13;;;;;;;13.23;7.78;;;;;;;;;;4965902;28;20041;-65
2021/12/06 09:38:40;;;;;;;13.25;7.88;;;;;;;;;;4961731;28;20030;-65
2021/12/06 09:41:19;;;;;;;15.13;7.80;;;;;;;;;;4966413;28;20027;-66
2021/12/06 09:43:46;;;;;;;12.52;7.15;;;;;;;;;;4962915;28;20134;-63
2021/12/06 09:46:12;;;;;;;12.20;7.55;;;;;;;;;;4963465;28;20487;-64
2021/12/06 09:48:41;;;;;;;14.02;7.68;;;;;;;;;;4967574;28;20074;-63
2021/12/06 09:51:12;;;;;;;14.45;8.40;;;;;;;;;;4968674;28;20089;-64
2021/12/06 09:53:40;;;;;;;15.65;7.85;;;;;;;;;;4965937;28;20045;-64
2021/12/06 09:56:10;;;;;;;14.07;7.90;;;;;;;;;;4963680;28;20094;-64
2021/12/06 09:58:36;;;;;;;14.80;8.02;;;;;;;;;;4963410;28;20045;-64
2021/12/06 10:01:19;;;;;;;13.15;7.57;;;;;;;;;;4965298;28;20042;-64
2021/12/06 10:03:47;;;;;;;11.77;7.35;;;;;;;;;;4960718;28;20502;-65
2021/12/06 10:06:13;;;;;;;10.25;7.13;;;;;;;;;;4963310;28;20125;-66
2021/12/06 10:08:44;;;;;;;16.50;7.65;;;;;;;;;;4962552;28;20027;-64
2021/12/06 10:11:10;;;;;;;14.75;7.60;;;;;;;;;;4963663;28;20157;-63
2021/12/06 10:13:36;;;;;;;13.73;7.50;;;;;;;;;;4963893;28;20130;-64
2021/12/06 10:16:02;;;;;;;20.30;8.07;;;;;;;;;;4962776;28;20113;-63
2021/12/06 10:18:28;;;;;;;11.57;7.10;;;;;;;;;;4966984;28;20038;-65
2021/12/06 10:20:54;;;;;;;12.63;7.72;;;;;;;;;;4964955;28;20046;-64
2021/12/06 10:23:20;;;;;;;11.70;6.85;;;;;;;;;;4957971;28;20035;-64
2021/12/06 10:25:49;;;;;;;9.63;6.88;;;;;;;;;;4958318;28;20034;-63
2021/12/06 10:28:17;;;;;;;11.30;6.97;;;;;;;;;;4967321;28;20402;-65
2021/12/06 10:30:46;;;;;;;10.50;6.43;;;;;;;;;;4962556;28;20038;-65
2021/12/06 10:33:16;;;;;;;9.32;6.70;;;;;;;;;;4960956;28;20026;-65
2021/12/06 10:35:48;;;;;;;11.70;6.85;;;;;;;;;;4961172;28;20023;-64
2021/12/06 10:38:22;;;;;;;10.27;6.95;;;;;;;;;;4963658;28;20026;-65
2021/12/06 10:40:49;;;;;;;11.30;6.82;;;;;;;;;;4954439;28;20034;-65
2021/12/06 10:43:15;;;;;;;10.77;7.35;;;;;;;;;;4954794;28;20037;-65
2021/12/06 10:45:47;;;;;;;11.40;6.70;;;;;;;;;;4959811;28;20031;-64
2021/12/06 10:48:22;;;;;;;12.32;6.95;;;;;;;;;;4958453;28;20120;-64
2021/12/06 10:50:50;;;;;;;12.40;7.10;;;;;;;;;;4958624;28;20341;-64
2021/12/06 10:53:19;;;;;;;12.43;7.30;;;;;;;;;;4967519;28;20042;-65
2021/12/06 10:55:46;;;;;;;10.05;6.45;;;;;;;;;;4967142;28;20034;-66
2021/12/06 10:58:18;;;;;;;10.85;6.53;;;;;;;;;;4970229;28;20126;-66
2021/12/06 11:00:53;;;;;;;10.40;6.47;;;;;;;;;;4965620;28;20027;-63
2021/12/06 11:03:18;;;;;;;9.35;6.80;;;;;;;;;;4959677;28;20030;-64
2021/12/06 11:05:44;;;;;;;10.48;6.30;;;;;;;;;;4961947;28;20093;-65
2021/12/06 11:08:16;;;;;;;11.15;6.75;;;;;;;;;;4960746;28;21688;-64
2021/12/06 11:10:45;;;;;;;14.32;7.32;;;;;;;;;;4961194;28;20113;-64
2021/12/06 11:13:16;;;;;;;11.50;6.88;;;;;;;;;;4960312;28;20023;-64
2021/12/06 11:16:08;;;;;;;10.18;6.88;;;;;;;;;;4965727;28;20031;-67
2021/12/06 11:18:55;;;;;;;10.93;6.22;;;;;;;;;;4967070;28;20070;-64
2021/12/06 11:21:29;;;;;;;9.23;6.03;;;;;;;;;;4962240;28;20038;-64
2021/12/06 11:23:58;;;;;;;;;;;;;;;;;;4964971;28;20137;-65
2021/12/06 11:26:23;;;;;;;9.95;5.88;;;;;;;;;;4966672;28;19983;-66
2021/12/06 11:28:49;;;;;;;10.82;6.90;;;;;;;;;;4965905;28;20453;-65
2021/12/06 11:31:17;;;;;;;10.10;6.38;;;;;;;;;;4964373;28;20039;-65
2021/12/06 11:33:42;;;;;;;11.93;7.18;;;;;;;;;;4965322;28;20395;-65
2021/12/06 11:36:25;;;;;;;17.25;10.20;;;;;;;;;;4966041;28;20027;-65
2021/12/06 11:38:58;;;;;;;11.75;7.18;;;;;;;;;;4966106;28;20027;-64
2021/12/06 11:41:23;;;;;;;10.88;6.68;;;;;;;;;;4965918;28;20035;-64
2021/12/06 11:43:49;;;;;;;10.77;7.18;;;;;;;;;;4964106;28;20027;-66
2021/12/06 11:46:27;;;;;;;13.48;7.40;;;;;;;;;;4965304;28;20034;-66
2021/12/06 11:48:52;;;;;;;9.45;5.95;;;;;;;;;;4965273;28;20038;-68
2021/12/06 11:51:19;;;;;;;9.35;6.15;;;;;;;;;;4963523;28;20553;-64
2021/12/06 11:53:54;;;;;;;11.60;6.40;;;;;;;;;;4968833;28;20463;-65
2021/12/06 11:56:26;;;;;;;10.98;6.82;;;;;;;;;;4968272;28;20054;-65
2021/12/06 11:59:01;;;;;;;11.43;7.00;;;;;;;;;;4966707;28;20027;-65
2021/12/06 12:01:37;;;;;;;12.18;7.10;;;;;;;;;;4964451;28;20035;-65
2021/12/06 12:04:14;;;;;;;14.32;8.13;;;;;;;;;;4963879;28;20042;-65
2021/12/06 12:06:43;;;;;;;11.23;7.45;;;;;;;;;;4965332;28;20419;-66
2021/12/06 12:09:14;;;;;;;11.07;6.70;;;;;;;;;;4963996;28;20539;-65
2021/12/06 12:11:56;;;;;;;11.80;7.30;;;;;;;;;;4964046;28;20035;-65
2021/12/06 12:14:27;;;;;;;14.50;7.68;;;;;;;;;;4964893;28;20027;-65
2021/12/06 12:16:53;;;;;;;10.63;7.38;;;;;;;;;;4962527;28;20038;-65
2021/12/06 12:19:18;;;;;;;14.38;7.88;;;;;;;;;;4968108;28;20471;-65
2021/12/06 12:21:44;;;;;;;12.70;7.47;;;;;;;;;;4965498;28;20073;-65
2021/12/06 12:24:09;;;;;;;12.13;7.70;;;;;;;;;;4960358;28;20093;-65
2021/12/06 12:26:35;;;;;;;11.10;7.25;;;;;;;;;;4961442;28;20034;-65
2021/12/06 12:29:12;;;;;;;13.82;7.20;;;;;;;;;;4967311;28;20424;-65
2021/12/06 12:31:38;;;;;;;11.38;7.28;;;;;;;;;;4964745;28;20129;-65
2021/12/06 12:34:04;;;;;;;10.68;6.80;;;;;;;;;;4964305;28;20030;-65
2021/12/06 12:36:34;;;;;;;11.50;7.18;;;;;;;;;;4966187;28;20459;-65
2021/12/06 12:38:59;;;;;;;13.07;7.00;;;;;;;;;;4964952;28;20023;-64
2021/12/06 12:41:28;;;;;;;11.90;6.82;;;;;;;;;;4968300;28;20502;-65
2021/12/06 12:44:03;;;;;;;12.38;6.53;;;;;;;;;;4966675;28;20094;-64
2021/12/06 12:46:38;;;;;;;8.70;6.28;;;;;;;;;;4967231;28;20034;-64
2021/12/06 12:49:16;;;;;;;12.02;6.53;;;;;;;;;;4967291;28;20113;-64
2021/12/06 12:51:50;;;;;;;11.57;6.88;;;;;;;;;;4964401;28;20090;-65
2021/12/06 12:54:33;;;;;;;;;;;;;;;;;;4968835;28;20148;-64
2021/12/06 12:57:03;;;;;;;9.90;7.03;;;;;;;;;;4967082;28;19937;-65
2021/12/06 12:59:35;;;;;;;10.20;5.95;;;;;;;;;;4966887;28;20054;-65
2021/12/06 13:02:25;;;;;;;9.68;6.13;;;;;;;;;;4964483;28;20035;-65
2021/12/06 13:04:57;;;;;;;11.32;6.60;;;;;;;;;;4963802;28;20026;-66
2021/12/06 13:07:28;;;;;;;11.80;6.60;;;;;;;;;;4964688;28;20452;-65
2021/12/06 13:09:55;;;;;;;9.77;6.57;;;;;;;;;;4965903;28;20030;-65
2021/12/06 13:12:21;;;;;;;9.43;6.78;;;;;;;;;;4966222;28;20136;-64
2021/12/06 13:14:57;;;;;;;10.55;7.40;;;;;;;;;;4963016;28;20109;-65
2021/12/06 13:17:36;;;;;;;11.00;7.03;;;;;;;;;;4963953;28;20108;-64
2021/12/06 13:20:13;;;;;;;10.95;7.25;;;;;;;;;;4965848;28;20113;-64
2021/12/06 13:22:47;;;;;;;11.50;7.60;;;;;;;;;;4963282;28;20030;-65
2021/12/06 13:25:18;;;;;;;11.90;7.60;;;;;;;;;;4967706;28;20027;-65
2021/12/06 13:28:10;;;;;;;12.13;8.20;;;;;;;;;;4964404;28;20409;-65
2021/12/06 13:30:48;;;;;;;12.80;7.43;;;;;;;;;;4964227;28;20026;-65
2021/12/06 13:33:16;;;;;;;11.45;7.63;;;;;;;;;;4960499;28;20039;-65
2021/12/06 13:36:01;;;;;;;10.93;6.80;;;;;;;;;;4965324;28;20026;-64
2021/12/06 13:38:28;;;;;;;14.73;8.40;;;;;;;;;;4964670;28;20035;-65
2021/12/06 13:40:57;;;;;;;13.32;8.20;;;;;;;;;;4969063;28;20042;-65
2021/12/06 13:43:37;;;;;;;13.23;7.85;;;;;;;;;;4964087;28;20018;-64
2021/12/06 13:46:07;;;;;;;12.18;7.75;;;;;;;;;;4967297;28;20035;-64
2021/12/06 13:48:37;;;;;;;13.98;8.32;;;;;;;;;;4963856;28;20128;-64
2021/12/06 13:51:32;;;;;;;14.27;8.52;;;;;;;;;;4965259;28;20023;-65
2021/12/06 13:54:11;;;;;;;12.65;7.95;;;;;;;;;;4961755;28;20034;-64
2021/12/06 13:56:47;;;;;;;16.48;8.75;;;;;;;;;;4963994;28;20034;-65
2021/12/06 13:59:16;;;;;;;12.02;8.05;;;;;;;;;;4964133;28;20026;-67
2021/12/06 14:01:45;;;;;;;9.82;6.63;;;;;;;;;;4964203;28;20540;-65
2021/12/06 14:04:14;;;;;;;8.65;6.38;;;;;;;;;;4962099;28;20022;-65
2021/12/06 14:07:05;;;;;;;8.32;5.88;;;;;;;;;;4964849;28;20038;-65
2021/12/06 14:09:33;;;;;;;8.93;5.63;;;;;;;;;;4963623;28;20122;-64
2021/12/06 14:12:04;;;;;;;7.40;5.63;;;;;;;;;;4964812;28;20034;-64
2021/12/06 14:14:36;;;;;;;10.25;5.70;;;;;;;;;;4963102;28;20030;-65
2021/12/06 14:17:03;;;;;;;9.50;5.22;;;;;;;;;;4967316;28;20375;-65
2021/12/06 14:19:29;;;;;;;8.77;5.50;;;;;;;;;;4963641;28;20101;-65
2021/12/06 14:21:57;;;;;;;10.98;5.95;;;;;;;;;;4965389;28;20034;-65
2021/12/06 14:24:24;;;;;;;10.30;5.90;;;;;;;;;;4963240;28;20030;-65
2021/12/06 14:26:50;;;;;;;8.45;5.68;;;;;;;;;;4962220;28;20903;-65
2021/12/06 14:29:19;;;;;;;9.70;6.53;;;;;;;;;;4959392;28;20467;-65
2021/12/06 14:31:48;;;;;;;13.63;6.20;;;;;;;;;;4960912;28;20090;-65
2021/12/06 14:34:15;;;;;;;12.40;6.35;;;;;;;;;;4964537;28;20051;-66
2021/12/06 14:36:43;;;;;;;8.25;5.63;;;;;;;;;;4966154;28;20336;-65
2021/12/06 14:39:21;;;;;;;8.38;5.35;;;;;;;;;;4964905;28;20405;-65
2021/12/06 14:42:01;;;;;;;7.82;5.57;;;;;;;;;;4961948;28;20801;-65
2021/12/06 14:44:40;;;;;;;6.88;5.13;;;;;;;;;;4959681;28;20109;-64
2021/12/06 14:47:08;;;;;;;7.20;5.15;;;;;;;;;;4963256;28;20125;-64
2021/12/06 14:49:35;;;;;;;9.10;4.97;;;;;;;;;;4958622;28;20138;-66
2021/12/06 14:52:06;;;;;;;8.95;5.10;;;;;;;;;;4960344;28;20038;-66
2021/12/06 14:54:32;;;;;;;7.82;4.53;;;;;;;;;;4962500;28;20166;-64
2021/12/06 14:57:02;;;;;;;6.85;4.70;;;;;;;;;;4963982;28;20043;-64